sensor_id;sensor_type;location;lat;lon;timestamp;pressure;altitude;pressure_sealevel;temperature;humidity
55373;BME280;70018;47.838;16.490;2023-07-29T00:00:12;98875.06;;;16.48;58.64
55373;BME280;70018;47.838;16.490;2023-07-29T00:02:40;98875.84;;;16.48;58.54
55373;BME280;70018;47.838;16.490;2023-07-29T00:05:07;98887.06;;;16.48;58.57
55373;BME280;70018;47.838;16.490;2023-07-29T00:07:33;98879.44;;;16.49;58.68
55373;BME280;70018;47.838;16.490;2023-07-29T00:10:00;98887.06;;;16.48;58.46
55373;BME280;70018;47.838;16.490;2023-07-29T00:12:27;98889.88;;;16.48;58.40
55373;BME280;70018;47.838;16.490;2023-07-29T00:14:54;98879.88;;;16.47;58.59
55373;BME280;70018;47.838;16.490;2023-07-29T00:17:20;98882.69;;;16.47;58.40
55373;BME280;70018;47.838;16.490;2023-07-29T00:19:47;98888.75;;;16.46;58.52
55373;BME280;70018;47.838;16.490;2023-07-29T00:22:14;98885.94;;;16.46;58.47
55373;BME280;70018;47.838;16.490;2023-07-29T00:24:42;98885.94;;;16.46;58.41
55373;BME280;70018;47.838;16.490;2023-07-29T00:27:09;98886.75;;;16.46;58.45
55373;BME280;70018;47.838;16.490;2023-07-29T01:50:12;98838.75;;;15.78;59.81
55373;BME280;70018;47.838;16.490;2023-07-29T01:52:39;98842.34;;;15.78;59.94
55373;BME280;70018;47.838;16.490;2023-07-29T01:55:05;98838.75;;;15.78;59.52
55373;BME280;70018;47.838;16.490;2023-07-29T01:57:32;98839.56;;;15.78;59.89
55373;BME280;70018;47.838;16.490;2023-07-29T01:59:59;98842.78;;;15.77;59.51
55373;BME280;70018;47.838;16.490;2023-07-29T02:02:26;98838.09;;;15.74;59.85
55373;BME280;70018;47.838;16.490;2023-07-29T02:04:52;98838.53;;;15.72;59.58
55373;BME280;70018;47.838;16.490;2023-07-29T02:07:19;98837.38;;;15.70;59.63
55373;BME280;70018;47.838;16.490;2023-07-29T02:09:46;98841.06;;;15.67;59.60
55373;BME280;70018;47.838;16.490;2023-07-29T02:12:12;98844.78;;;15.64;59.78
55373;BME280;70018;47.838;16.490;2023-07-29T02:14:39;98854.06;;;15.61;60.11
55373;BME280;70018;47.838;16.490;2023-07-29T02:17:05;98851.47;;;15.53;60.21
55373;BME280;70018;47.838;16.490;2023-07-29T02:19:32;98858.81;;;15.47;60.66
55373;BME280;70018;47.838;16.490;2023-07-29T02:21:59;98861.47;;;15.38;61.05
55373;BME280;70018;47.838;16.490;2023-07-29T02:24:26;98854.50;;;15.30;61.29
55373;BME280;70018;47.838;16.490;2023-07-29T02:26:52;98856.22;;;15.24;61.39
55373;BME280;70018;47.838;16.490;2023-07-29T02:29:19;98857.19;;;15.18;61.67
55373;BME280;70018;47.838;16.490;2023-07-29T02:31:46;98866.56;;;15.11;61.92
55373;BME280;70018;47.838;16.490;2023-07-29T02:34:12;98859.91;;;15.05;62.15
55373;BME280;70018;47.838;16.490;2023-07-29T02:36:39;98859.22;;;15.01;62.41
55373;BME280;70018;47.838;16.490;2023-07-29T02:39:06;98857.31;;;14.98;62.42
55373;BME280;70018;47.838;16.490;2023-07-29T02:41:32;98855.38;;;14.95;62.55
55373;BME280;70018;47.838;16.490;2023-07-29T02:43:59;98862.22;;;14.94;62.45
55373;BME280;70018;47.838;16.490;2023-07-29T02:46:26;98855.03;;;14.93;62.74
55373;BME280;70018;47.838;16.490;2023-07-29T02:48:52;98850.66;;;14.92;62.73
55373;BME280;70018;47.838;16.490;2023-07-29T02:51:19;98872.69;;;14.90;62.84
55373;BME280;70018;47.838;16.490;2023-07-29T02:53:45;98880.66;;;14.91;62.97
55373;BME280;70018;47.838;16.490;2023-07-29T02:56:12;98868.34;;;14.89;63.12
55373;BME280;70018;47.838;16.490;2023-07-29T02:58:39;98874.78;;;14.86;63.21
55373;BME280;70018;47.838;16.490;2023-07-29T03:01:06;98854.16;;;14.80;63.37
55373;BME280;70018;47.838;16.490;2023-07-29T03:03:33;98865.34;;;14.80;63.30
55373;BME280;70018;47.838;16.490;2023-07-29T03:06:03;98862.22;;;14.78;63.37
55373;BME280;70018;47.838;16.490;2023-07-29T03:08:30;98862.22;;;14.78;63.30
55373;BME280;70018;47.838;16.490;2023-07-29T03:10:57;98862.22;;;14.78;63.18
55373;BME280;70018;47.838;16.490;2023-07-29T03:13:24;98867.72;;;14.81;62.95
55373;BME280;70018;47.838;16.490;2023-07-29T03:15:51;98863.59;;;14.86;62.99
55373;BME280;70018;47.838;16.490;2023-07-29T03:18:17;98864.28;;;14.90;62.96
55373;BME280;70018;47.838;16.490;2023-07-29T03:20:44;98865.44;;;14.92;62.63
55373;BME280;70018;47.838;16.490;2023-07-29T03:23:11;98868.16;;;14.96;62.38
55373;BME280;70018;47.838;16.490;2023-07-29T03:25:38;98866.38;;;15.02;62.30
55373;BME280;70018;47.838;16.490;2023-07-29T03:28:04;98867.09;;;15.06;62.08
55373;BME280;70018;47.838;16.490;2023-07-29T03:30:31;98865.31;;;15.12;62.40
55373;BME280;70018;47.838;16.490;2023-07-29T03:32:58;98865.25;;;15.16;62.16
55373;BME280;70018;47.838;16.490;2023-07-29T03:35:25;98857.09;;;15.21;62.32
55373;BME280;70018;47.838;16.490;2023-07-29T03:37:51;98859.03;;;15.24;61.79
55373;BME280;70018;47.838;16.490;2023-07-29T03:40:18;98858.59;;;15.26;61.72
55373;BME280;70018;47.838;16.490;2023-07-29T03:42:45;98864.88;;;15.30;61.78
55373;BME280;70018;47.838;16.490;2023-07-29T03:45:11;98859.53;;;15.35;61.54
55373;BME280;70018;47.838;16.490;2023-07-29T03:47:38;98869.41;;;15.40;61.47
55373;BME280;70018;47.838;16.490;2023-07-29T03:50:05;98865.28;;;15.44;61.37
55373;BME280;70018;47.838;16.490;2023-07-29T03:52:32;98871.59;;;15.48;61.44
55373;BME280;70018;47.838;16.490;2023-07-29T03:54:59;98866.66;;;15.52;61.23
55373;BME280;70018;47.838;16.490;2023-07-29T03:57:25;98878.66;;;15.53;61.62
55373;BME280;70018;47.838;16.490;2023-07-29T03:59:52;98877.19;;;15.48;61.76
55373;BME280;70018;47.838;16.490;2023-07-29T04:02:19;98876.13;;;15.42;61.84
55373;BME280;70018;47.838;16.490;2023-07-29T04:04:46;98876.31;;;15.35;62.04
55373;BME280;70018;47.838;16.490;2023-07-29T04:07:14;98882.47;;;15.30;62.35
55373;BME280;70018;47.838;16.490;2023-07-29T04:09:41;98880.53;;;15.27;62.35
55373;BME280;70018;47.838;16.490;2023-07-29T04:12:09;98904.56;;;15.25;62.51
55373;BME280;70018;47.838;16.490;2023-07-29T04:14:36;98906.56;;;15.24;62.75
55373;BME280;70018;47.838;16.490;2023-07-29T04:17:03;98905.69;;;15.27;62.43
55373;BME280;70018;47.838;16.490;2023-07-29T04:19:30;98907.28;;;15.28;62.47
55373;BME280;70018;47.838;16.490;2023-07-29T04:21:56;98912.88;;;15.28;62.47
55373;BME280;70018;47.838;16.490;2023-07-29T04:24:23;98920.47;;;15.28;62.57
55373;BME280;70018;47.838;16.490;2023-07-29T04:26:50;98914.44;;;15.29;62.30
55373;BME280;70018;47.838;16.490;2023-07-29T04:29:16;98924.75;;;15.32;62.50
55373;BME280;70018;47.838;16.490;2023-07-29T04:31:43;98929.56;;;15.32;62.29
55373;BME280;70018;47.838;16.490;2023-07-29T04:34:10;98942.41;;;15.29;62.71
55373;BME280;70018;47.838;16.490;2023-07-29T04:36:36;98933.66;;;15.27;62.66
55373;BME280;70018;47.838;16.490;2023-07-29T04:39:04;98933.78;;;15.24;62.94
55373;BME280;70018;47.838;16.490;2023-07-29T04:41:30;98940.63;;;15.19;63.06
55373;BME280;70018;47.838;16.490;2023-07-29T04:43:57;98945.78;;;15.21;62.92
55373;BME280;70018;47.838;16.490;2023-07-29T04:46:24;98936.97;;;15.22;62.95
55373;BME280;70018;47.838;16.490;2023-07-29T04:48:50;98934.53;;;15.24;62.81
55373;BME280;70018;47.838;16.490;2023-07-29T04:51:17;98938.47;;;15.27;62.80
55373;BME280;70018;47.838;16.490;2023-07-29T04:53:43;98930.34;;;15.32;62.67
55373;BME280;70018;47.838;16.490;2023-07-29T04:56:10;98932.25;;;15.35;62.57
55373;BME280;70018;47.838;16.490;2023-07-29T04:58:37;98933.31;;;15.41;62.54
55373;BME280;70018;47.838;16.490;2023-07-29T05:01:04;98937.13;;;15.47;62.09
55373;BME280;70018;47.838;16.490;2023-07-29T05:03:31;98933.81;;;15.52;61.88
55373;BME280;70018;47.838;16.490;2023-07-29T05:05:58;98928.47;;;15.58;61.74
55373;BME280;70018;47.838;16.490;2023-07-29T05:08:26;98929.94;;;15.63;61.25
55373;BME280;70018;47.838;16.490;2023-07-29T05:10:53;98921.81;;;15.68;61.16
55373;BME280;70018;47.838;16.490;2023-07-29T05:13:20;98918.00;;;15.75;60.96
55373;BME280;70018;47.838;16.490;2023-07-29T05:15:48;98923.84;;;15.80;60.83
55373;BME280;70018;47.838;16.490;2023-07-29T05:18:16;98931.16;;;15.90;60.60
55373;BME280;70018;47.838;16.490;2023-07-29T05:20:42;98925.16;;;16.04;60.30
55373;BME280;70018;47.838;16.490;2023-07-29T05:23:09;98919.78;;;16.26;59.74
55373;BME280;70018;47.838;16.490;2023-07-29T05:25:36;98926.28;;;16.48;59.58
55373;BME280;70018;47.838;16.490;2023-07-29T05:28:03;98923.16;;;16.71;59.02
55373;BME280;70018;47.838;16.490;2023-07-29T06:41:00;98948.75;;;17.92;57.51
55373;BME280;70018;47.838;16.490;2023-07-29T06:43:27;98948.97;;;17.98;57.43
55373;BME280;70018;47.838;16.490;2023-07-29T06:45:53;98937.00;;;18.06;57.27
55373;BME280;70018;47.838;16.490;2023-07-29T06:48:20;98937.84;;;18.16;57.18
55373;BME280;70018;47.838;16.490;2023-07-29T06:50:47;98943.72;;;18.31;57.07
55373;BME280;70018;47.838;16.490;2023-07-29T06:53:13;98949.31;;;18.43;56.92
55373;BME280;70018;47.838;16.490;2023-07-29T06:55:40;98935.75;;;18.51;56.55
55373;BME280;70018;47.838;16.490;2023-07-29T06:58:07;98942.34;;;18.57;56.57
55373;BME280;70018;47.838;16.490;2023-07-29T07:00:34;98940.81;;;18.65;56.37
55373;BME280;70018;47.838;16.490;2023-07-29T07:03:00;98945.69;;;18.73;56.49
55373;BME280;70018;47.838;16.490;2023-07-29T07:05:27;98939.03;;;18.80;55.84
55373;BME280;70018;47.838;16.490;2023-07-29T07:07:54;98948.41;;;18.86;56.10
55373;BME280;70018;47.838;16.490;2023-07-29T07:10:20;98944.06;;;18.94;56.03
55373;BME280;70018;47.838;16.490;2023-07-29T07:12:47;98941.28;;;19.03;55.76
55373;BME280;70018;47.838;16.490;2023-07-29T07:15:14;98944.78;;;19.16;55.55
55373;BME280;70018;47.838;16.490;2023-07-29T07:17:41;98945.63;;;19.35;55.40
55373;BME280;70018;47.838;16.490;2023-07-29T07:20:08;98946.13;;;19.52;54.77
55373;BME280;70018;47.838;16.490;2023-07-29T07:22:34;98946.75;;;19.65;55.05
55373;BME280;70018;47.838;16.490;2023-07-29T07:25:01;98942.41;;;19.73;54.53
55373;BME280;70018;47.838;16.490;2023-07-29T07:27:28;98942.56;;;19.78;54.56
55373;BME280;70018;47.838;16.490;2023-07-29T07:29:55;98942.28;;;19.85;54.08
55373;BME280;70018;47.838;16.490;2023-07-29T07:32:21;98933.19;;;20.00;53.93
55373;BME280;70018;47.838;16.490;2023-07-29T07:34:48;98936.44;;;20.16;53.52
55373;BME280;70018;47.838;16.490;2023-07-29T07:37:15;98930.94;;;20.31;53.18
55373;BME280;70018;47.838;16.490;2023-07-29T07:39:41;98936.09;;;20.41;52.82
55373;BME280;70018;47.838;16.490;2023-07-29T07:42:08;98932.00;;;20.51;52.51
55373;BME280;70018;47.838;16.490;2023-07-29T07:44:35;98934.50;;;20.58;52.49
55373;BME280;70018;47.838;16.490;2023-07-29T07:47:01;98934.16;;;20.66;51.94
55373;BME280;70018;47.838;16.490;2023-07-29T08:59:33;98913.84;;;22.42;48.82
55373;BME280;70018;47.838;16.490;2023-07-29T09:02:00;98911.09;;;22.47;48.79
55373;BME280;70018;47.838;16.490;2023-07-29T09:04:26;98914.00;;;22.53;48.72
55373;BME280;70018;47.838;16.490;2023-07-29T09:06:56;98913.59;;;22.60;48.75
55373;BME280;70018;47.838;16.490;2023-07-29T09:09:25;98910.88;;;22.66;48.87
55373;BME280;70018;47.838;16.490;2023-07-29T09:11:51;98913.81;;;22.71;48.85
55373;BME280;70018;47.838;16.490;2023-07-29T09:14:18;98917.50;;;22.77;49.01
55373;BME280;70018;47.838;16.490;2023-07-29T09:16:46;98916.78;;;22.82;48.89
55373;BME280;70018;47.838;16.490;2023-07-29T09:19:13;98919.44;;;22.86;48.90
55373;BME280;70018;47.838;16.490;2023-07-29T09:21:40;98906.63;;;22.90;48.92
55373;BME280;70018;47.838;16.490;2023-07-29T09:24:07;98905.16;;;22.95;48.80
55373;BME280;70018;47.838;16.490;2023-07-29T09:26:34;98908.09;;;23.00;48.94
55373;BME280;70018;47.838;16.490;2023-07-29T09:29:02;98905.56;;;23.02;48.71
55373;BME280;70018;47.838;16.490;2023-07-29T09:31:29;98902.03;;;23.07;49.03
55373;BME280;70018;47.838;16.490;2023-07-29T09:34:04;98903.19;;;23.16;49.06
55373;BME280;70018;47.838;16.490;2023-07-29T09:36:32;98896.63;;;23.24;48.33
55373;BME280;70018;47.838;16.490;2023-07-29T09:39:00;98901.63;;;23.35;48.75
55373;BME280;70018;47.838;16.490;2023-07-29T09:41:28;98895.84;;;23.44;48.15
55373;BME280;70018;47.838;16.490;2023-07-29T09:43:59;98899.75;;;23.46;47.78
55373;BME280;70018;47.838;16.490;2023-07-29T09:46:32;98899.22;;;23.48;47.59
55373;BME280;70018;47.838;16.490;2023-07-29T09:49:02;98897.97;;;23.49;47.65
55373;BME280;70018;47.838;16.490;2023-07-29T09:51:29;98894.91;;;23.52;47.74
55373;BME280;70018;47.838;16.490;2023-07-29T09:53:56;98885.69;;;23.57;47.94
55373;BME280;70018;47.838;16.490;2023-07-29T09:56:26;98886.47;;;23.58;47.73
55373;BME280;70018;47.838;16.490;2023-07-29T09:58:55;98890.28;;;23.55;47.85
55373;BME280;70018;47.838;16.490;2023-07-29T10:01:22;98881.03;;;23.54;47.64
55373;BME280;70018;47.838;16.490;2023-07-29T10:03:50;98874.00;;;23.50;47.97
55373;BME280;70018;47.838;16.490;2023-07-29T10:06:17;98885.50;;;23.41;48.00
55373;BME280;70018;47.838;16.490;2023-07-29T10:08:44;98874.59;;;23.34;47.84
55373;BME280;70018;47.838;16.490;2023-07-29T10:11:11;98876.84;;;23.30;47.77
55373;BME280;70018;47.838;16.490;2023-07-29T10:13:38;98868.94;;;23.34;48.18
55373;BME280;70018;47.838;16.490;2023-07-29T10:16:05;98873.88;;;23.39;47.58
55373;BME280;70018;47.838;16.490;2023-07-29T10:18:33;98869.34;;;23.47;47.86
55373;BME280;70018;47.838;16.490;2023-07-29T10:21:01;98866.63;;;23.58;47.37
55373;BME280;70018;47.838;16.490;2023-07-29T10:23:32;98869.34;;;23.67;47.64
55373;BME280;70018;47.838;16.490;2023-07-29T10:26:04;98873.59;;;23.77;47.29
55373;BME280;70018;47.838;16.490;2023-07-29T10:28:32;98868.84;;;23.89;46.84
55373;BME280;70018;47.838;16.490;2023-07-29T10:30:59;98869.94;;;23.97;47.22
55373;BME280;70018;47.838;16.490;2023-07-29T10:33:26;98861.47;;;24.02;46.87
55373;BME280;70018;47.838;16.490;2023-07-29T10:35:53;98864.66;;;24.10;46.98
55373;BME280;70018;47.838;16.490;2023-07-29T10:38:23;98850.00;;;24.17;46.58
55373;BME280;70018;47.838;16.490;2023-07-29T10:40:55;98860.38;;;24.20;46.22
55373;BME280;70018;47.838;16.490;2023-07-29T10:43:37;98866.13;;;24.25;46.06
55373;BME280;70018;47.838;16.490;2023-07-29T10:46:32;98868.50;;;24.32;46.12
55373;BME280;70018;47.838;16.490;2023-07-29T10:49:01;98855.16;;;24.39;45.58
55373;BME280;70018;47.838;16.490;2023-07-29T10:51:30;98851.06;;;24.45;45.72
55373;BME280;70018;47.838;16.490;2023-07-29T10:54:10;98837.19;;;24.53;45.77
55373;BME280;70018;47.838;16.490;2023-07-29T10:56:41;98842.41;;;24.60;45.35
55373;BME280;70018;47.838;16.490;2023-07-29T11:01:59;98833.19;;;24.70;45.01
55373;BME280;70018;47.838;16.490;2023-07-29T11:04:28;98836.09;;;24.76;45.26
55373;BME280;70018;47.838;16.490;2023-07-29T11:09:51;98822.53;;;24.91;45.33
55373;BME280;70018;47.838;16.490;2023-07-29T11:15:28;98819.53;;;25.11;45.04
55373;BME280;70018;47.838;16.490;2023-07-29T11:17:59;98807.91;;;25.15;45.02
55373;BME280;70018;47.838;16.490;2023-07-29T11:20:32;98803.81;;;25.21;44.76
55373;BME280;70018;47.838;16.490;2023-07-29T11:23:03;98801.00;;;25.32;44.90
55373;BME280;70018;47.838;16.490;2023-07-29T11:25:30;98808.31;;;25.44;44.65
55373;BME280;70018;47.838;16.490;2023-07-29T11:27:59;98792.84;;;25.56;44.62
55373;BME280;70018;47.838;16.490;2023-07-29T11:30:29;98783.84;;;25.64;44.39
55373;BME280;70018;47.838;16.490;2023-07-29T11:32:58;98788.75;;;25.74;43.94
55373;BME280;70018;47.838;16.490;2023-07-29T11:35:25;98796.25;;;25.72;44.03
55373;BME280;70018;47.838;16.490;2023-07-29T11:37:54;98797.28;;;25.63;43.82
55373;BME280;70018;47.838;16.490;2023-07-29T11:40:23;98804.22;;;25.56;43.62
55373;BME280;70018;47.838;16.490;2023-07-29T11:42:51;98797.75;;;25.50;44.02
55373;BME280;70018;47.838;16.490;2023-07-29T11:45:20;98787.16;;;25.56;43.76
55373;BME280;70018;47.838;16.490;2023-07-29T11:47:51;98790.28;;;25.70;43.45
55373;BME280;70018;47.838;16.490;2023-07-29T11:50:17;98789.03;;;25.76;43.27
55373;BME280;70018;47.838;16.490;2023-07-29T11:52:46;98780.00;;;25.89;43.18
55373;BME280;70018;47.838;16.490;2023-07-29T11:55:14;98772.03;;;25.98;42.73
55373;BME280;70018;47.838;16.490;2023-07-29T11:57:42;98782.59;;;26.09;42.36
55373;BME280;70018;47.838;16.490;2023-07-29T12:00:10;98778.75;;;26.17;42.50
55373;BME280;70018;47.838;16.490;2023-07-29T12:02:40;98777.19;;;26.16;42.75
55373;BME280;70018;47.838;16.490;2023-07-29T12:05:09;98774.34;;;26.11;42.42
55373;BME280;70018;47.838;16.490;2023-07-29T12:07:38;98761.94;;;26.03;42.77
55373;BME280;70018;47.838;16.490;2023-07-29T12:10:06;98763.22;;;25.91;42.88
55373;BME280;70018;47.838;16.490;2023-07-29T12:12:33;98765.75;;;25.78;42.81
55373;BME280;70018;47.838;16.490;2023-07-29T12:14:59;98775.81;;;25.62;42.79
55373;BME280;70018;47.838;16.490;2023-07-29T12:17:27;98771.38;;;25.44;42.81
55373;BME280;70018;47.838;16.490;2023-07-29T12:19:55;98775.41;;;25.27;43.25
55373;BME280;70018;47.838;16.490;2023-07-29T12:22:21;98771.75;;;25.10;43.33
55373;BME280;70018;47.838;16.490;2023-07-29T12:24:51;98807.03;;;24.92;43.06
55373;BME280;70018;47.838;16.490;2023-07-29T12:27:18;98802.66;;;24.60;43.42
55373;BME280;70018;47.838;16.490;2023-07-29T12:29:44;98795.19;;;24.25;43.76
55373;BME280;70018;47.838;16.490;2023-07-29T12:32:13;98802.84;;;23.88;44.45
55373;BME280;70018;47.838;16.490;2023-07-29T12:34:40;98791.09;;;23.49;45.19
55373;BME280;70018;47.838;16.490;2023-07-29T12:37:07;98799.25;;;23.22;45.55
55373;BME280;70018;47.838;16.490;2023-07-29T12:39:35;98804.91;;;23.01;45.33
55373;BME280;70018;47.838;16.490;2023-07-29T12:42:06;98800.47;;;22.80;45.99
55373;BME280;70018;47.838;16.490;2023-07-29T12:44:34;98784.06;;;22.64;46.26
55373;BME280;70018;47.838;16.490;2023-07-29T12:47:02;98771.59;;;22.56;45.83
55373;BME280;70018;47.838;16.490;2023-07-29T12:49:31;98771.75;;;22.67;45.54
55373;BME280;70018;47.838;16.490;2023-07-29T12:51:59;98770.31;;;22.77;45.54
55373;BME280;70018;47.838;16.490;2023-07-29T12:54:26;98759.38;;;22.85;45.12
55373;BME280;70018;47.838;16.490;2023-07-29T12:56:52;98755.56;;;22.88;45.72
55373;BME280;70018;47.838;16.490;2023-07-29T12:59:19;98777.72;;;22.89;46.20
55373;BME280;70018;47.838;16.490;2023-07-29T13:01:46;98772.09;;;22.95;45.70
55373;BME280;70018;47.838;16.490;2023-07-29T13:04:13;98780.59;;;22.95;45.58
55373;BME280;70018;47.838;16.490;2023-07-29T13:06:39;98783.66;;;22.91;45.94
55373;BME280;70018;47.838;16.490;2023-07-29T13:09:06;98785.34;;;22.83;45.82
55373;BME280;70018;47.838;16.490;2023-07-29T13:11:34;98799.63;;;22.74;45.94
55373;BME280;70018;47.838;16.490;2023-07-29T13:14:01;98804.13;;;22.66;46.42
55373;BME280;70018;47.838;16.490;2023-07-29T13:16:28;98802.69;;;22.56;46.58
55373;BME280;70018;47.838;16.490;2023-07-29T13:18:55;98816.66;;;22.45;46.76
55373;BME280;70018;47.838;16.490;2023-07-29T13:21:23;98821.84;;;22.32;47.04
55373;BME280;70018;47.838;16.490;2023-07-29T13:23:51;98819.59;;;22.21;47.49
55373;BME280;70018;47.838;16.490;2023-07-29T13:26:18;98824.38;;;22.15;47.67
55373;BME280;70018;47.838;16.490;2023-07-29T13:28:44;98811.72;;;22.11;48.08
55373;BME280;70018;47.838;16.490;2023-07-29T13:31:11;98815.50;;;22.08;47.79
55373;BME280;70018;47.838;16.490;2023-07-29T13:33:39;98822.91;;;22.05;48.08
55373;BME280;70018;47.838;16.490;2023-07-29T13:36:05;98818.44;;;21.99;48.24
55373;BME280;70018;47.838;16.490;2023-07-29T13:38:32;98836.59;;;21.92;48.23
55373;BME280;70018;47.838;16.490;2023-07-29T13:40:59;98828.06;;;21.77;49.02
55373;BME280;70018;47.838;16.490;2023-07-29T13:43:25;98828.75;;;21.72;48.91
55373;BME280;70018;47.838;16.490;2023-07-29T13:45:52;98832.81;;;21.71;49.00
55373;BME280;70018;47.838;16.490;2023-07-29T13:48:19;98837.22;;;21.72;49.20
55373;BME280;70018;47.838;16.490;2023-07-29T13:50:46;98836.72;;;21.74;48.94
55373;BME280;70018;47.838;16.490;2023-07-29T13:53:13;98840.66;;;21.76;48.88
55373;BME280;70018;47.838;16.490;2023-07-29T13:55:39;98830.28;;;21.73;48.82
55373;BME280;70018;47.838;16.490;2023-07-29T13:58:06;98822.78;;;21.70;48.82
55373;BME280;70018;47.838;16.490;2023-07-29T14:00:33;98825.97;;;21.63;49.11
55373;BME280;70018;47.838;16.490;2023-07-29T14:02:59;98815.56;;;21.55;49.19
55373;BME280;70018;47.838;16.490;2023-07-29T14:05:26;98818.56;;;21.51;49.05
55373;BME280;70018;47.838;16.490;2023-07-29T14:07:53;98818.28;;;21.49;48.95
55373;BME280;70018;47.838;16.490;2023-07-29T14:10:19;98816.69;;;21.48;49.15
55373;BME280;70018;47.838;16.490;2023-07-29T14:12:46;98816.25;;;21.50;48.65
55373;BME280;70018;47.838;16.490;2023-07-29T14:15:12;98817.00;;;21.50;48.63
55373;BME280;70018;47.838;16.490;2023-07-29T14:17:39;98811.06;;;21.48;48.98
55373;BME280;70018;47.838;16.490;2023-07-29T14:20:06;98812.34;;;21.47;48.21
55373;BME280;70018;47.838;16.490;2023-07-29T14:22:33;98815.34;;;21.44;48.27
55373;BME280;70018;47.838;16.490;2023-07-29T14:25:00;98812.69;;;21.40;48.64
55373;BME280;70018;47.838;16.490;2023-07-29T14:27:27;98811.16;;;21.39;48.52
55373;BME280;70018;47.838;16.490;2023-07-29T14:29:54;98804.88;;;21.35;48.74
55373;BME280;70018;47.838;16.490;2023-07-29T14:32:20;98806.47;;;21.36;48.54
55373;BME280;70018;47.838;16.490;2023-07-29T14:34:49;98799.25;;;21.35;48.59
55373;BME280;70018;47.838;16.490;2023-07-29T14:37:16;98803.34;;;21.34;48.73
55373;BME280;70018;47.838;16.490;2023-07-29T14:39:43;98794.25;;;21.30;48.43
55373;BME280;70018;47.838;16.490;2023-07-29T14:42:09;98789.66;;;21.18;48.70
55373;BME280;70018;47.838;16.490;2023-07-29T14:44:36;98798.47;;;21.11;49.12
55373;BME280;70018;47.838;16.490;2023-07-29T14:47:03;98793.50;;;21.06;49.32
55373;BME280;70018;47.838;16.490;2023-07-29T14:49:29;98780.53;;;20.99;49.23
55373;BME280;70018;47.838;16.490;2023-07-29T14:51:56;98786.06;;;20.94;49.53
55373;BME280;70018;47.838;16.490;2023-07-29T14:54:23;98778.84;;;20.93;49.43
55373;BME280;70018;47.838;16.490;2023-07-29T14:56:49;98780.41;;;20.94;49.32
55373;BME280;70018;47.838;16.490;2023-07-29T14:59:16;98781.50;;;20.96;49.13
55373;BME280;70018;47.838;16.490;2023-07-29T15:01:43;98785.38;;;20.99;49.11
55373;BME280;70018;47.838;16.490;2023-07-29T15:04:09;98782.56;;;20.99;49.44
55373;BME280;70018;47.838;16.490;2023-07-29T15:06:36;98773.81;;;20.97;48.89
55373;BME280;70018;47.838;16.490;2023-07-29T15:09:03;98776.25;;;21.04;48.56
55373;BME280;70018;47.838;16.490;2023-07-29T15:11:30;98780.47;;;21.08;49.10
55373;BME280;70018;47.838;16.490;2023-07-29T15:13:59;98774.66;;;21.12;48.97
55373;BME280;70018;47.838;16.490;2023-07-29T15:16:26;98777.28;;;21.15;48.92
55373;BME280;70018;47.838;16.490;2023-07-29T15:18:53;98779.94;;;21.19;48.82
55373;BME280;70018;47.838;16.490;2023-07-29T15:21:19;98784.63;;;21.22;48.90
55373;BME280;70018;47.838;16.490;2023-07-29T15:23:46;98770.81;;;21.24;48.74
55373;BME280;70018;47.838;16.490;2023-07-29T15:26:13;98777.03;;;21.28;48.67
55373;BME280;70018;47.838;16.490;2023-07-29T15:28:39;98777.06;;;21.43;48.54
55373;BME280;70018;47.838;16.490;2023-07-29T15:31:06;98785.66;;;21.63;48.01
55373;BME280;70018;47.838;16.490;2023-07-29T15:33:33;98782.69;;;21.81;47.75
55373;BME280;70018;47.838;16.490;2023-07-29T15:36:03;98779.16;;;22.01;47.47
55373;BME280;70018;47.838;16.490;2023-07-29T15:38:29;98777.47;;;22.23;47.17
55373;BME280;70018;47.838;16.490;2023-07-29T15:40:56;98780.22;;;22.47;46.14
55373;BME280;70018;47.838;16.490;2023-07-29T15:43:23;98778.44;;;22.70;46.08
55373;BME280;70018;47.838;16.490;2023-07-29T15:45:50;98775.72;;;22.95;46.04
55373;BME280;70018;47.838;16.490;2023-07-29T15:48:16;98774.47;;;23.17;45.28
55373;BME280;70018;47.838;16.490;2023-07-29T15:50:43;98761.28;;;23.34;44.99
55373;BME280;70018;47.838;16.490;2023-07-29T15:53:10;98740.81;;;23.44;45.03
55373;BME280;70018;47.838;16.490;2023-07-29T15:55:36;98738.50;;;23.68;44.64
55373;BME280;70018;47.838;16.490;2023-07-29T15:58:03;98734.34;;;23.95;44.04
55373;BME280;70018;47.838;16.490;2023-07-29T16:00:30;98742.81;;;24.21;44.25
55373;BME280;70018;47.838;16.490;2023-07-29T16:02:57;98742.44;;;24.39;43.49
55373;BME280;70018;47.838;16.490;2023-07-29T16:05:24;98752.59;;;24.57;43.58
55373;BME280;70018;47.838;16.490;2023-07-29T16:07:51;98748.56;;;24.69;42.97
55373;BME280;70018;47.838;16.490;2023-07-29T16:10:19;98730.59;;;24.83;42.78
55373;BME280;70018;47.838;16.490;2023-07-29T16:12:46;98728.81;;;24.91;42.67
55373;BME280;70018;47.838;16.490;2023-07-29T16:15:13;98727.06;;;24.99;43.01
55373;BME280;70018;47.838;16.490;2023-07-29T16:17:40;98725.81;;;25.11;42.51
55373;BME280;70018;47.838;16.490;2023-07-29T16:20:07;98727.63;;;25.25;42.38
55373;BME280;70018;47.838;16.490;2023-07-29T16:22:34;98733.66;;;25.38;42.13
55373;BME280;70018;47.838;16.490;2023-07-29T16:25:02;98723.34;;;25.46;41.92
55373;BME280;70018;47.838;16.490;2023-07-29T16:27:29;98730.84;;;25.55;41.53
55373;BME280;70018;47.838;16.490;2023-07-29T16:29:59;98729.81;;;25.64;41.85
55373;BME280;70018;47.838;16.490;2023-07-29T16:32:26;98733.44;;;25.70;41.31
55373;BME280;70018;47.838;16.490;2023-07-29T16:34:53;98740.69;;;25.82;41.00
55373;BME280;70018;47.838;16.490;2023-07-29T16:37:20;98750.00;;;25.88;41.29
55373;BME280;70018;47.838;16.490;2023-07-29T16:39:47;98747.69;;;25.97;40.92